sensor_id;sensor_type;location;lat;lon;timestamp;temperature;humidity
67027;DHT22;53933;52.142;11.738;2022-10-30T00:00:56;24.10;73.00
67027;DHT22;53933;52.142;11.738;2022-10-30T00:03:23;24.10;72.90
67027;DHT22;53933;52.142;11.738;2022-10-30T00:05:50;24.10;72.90
67027;DHT22;53933;52.142;11.738;2022-10-30T00:08:18;24.10;72.90
67027;DHT22;53933;52.142;11.738;2022-10-30T00:10:45;24.10;73.00
67027;DHT22;53933;52.142;11.738;2022-10-30T00:13:14;24.10;73.00
67027;DHT22;53933;52.142;11.738;2022-10-30T00:15:46;24.20;72.90
67027;DHT22;53933;52.142;11.738;2022-10-30T00:18:14;24.20;72.70
67027;DHT22;53933;52.142;11.738;2022-10-30T00:20:41;24.20;72.50
67027;DHT22;53933;52.142;11.738;2022-10-30T00:23:08;24.20;72.50
67027;DHT22;53933;52.142;11.738;2022-10-30T00:25:35;24.20;72.50
67027;DHT22;53933;52.142;11.738;2022-10-30T00:28:02;24.20;72.60
67027;DHT22;53933;52.142;11.738;2022-10-30T00:30:29;24.30;72.60
67027;DHT22;53933;52.142;11.738;2022-10-30T00:32:57;24.20;72.50
67027;DHT22;53933;52.142;11.738;2022-10-30T00:35:27;24.20;72.50
67027;DHT22;53933;52.142;11.738;2022-10-30T00:37:54;24.30;72.60
67027;DHT22;53933;52.142;11.738;2022-10-30T00:40:21;24.20;72.50
67027;DHT22;53933;52.142;11.738;2022-10-30T00:42:48;24.20;72.30
67027;DHT22;53933;52.142;11.738;2022-10-30T00:45:16;24.20;72.20
67027;DHT22;53933;52.142;11.738;2022-10-30T00:47:45;24.30;72.30
67027;DHT22;53933;52.142;11.738;2022-10-30T00:50:15;24.20;72.20
67027;DHT22;53933;52.142;11.738;2022-10-30T00:52:47;24.20;72.20
67027;DHT22;53933;52.142;11.738;2022-10-30T00:55:18;24.30;72.20
67027;DHT22;53933;52.142;11.738;2022-10-30T00:57:46;24.30;72.40
67027;DHT22;53933;52.142;11.738;2022-10-30T01:00:16;24.30;72.40
67027;DHT22;53933;52.142;11.738;2022-10-30T01:02:44;24.30;72.40
67027;DHT22;53933;52.142;11.738;2022-10-30T01:05:15;24.30;72.50
67027;DHT22;53933;52.142;11.738;2022-10-30T01:07:42;24.30;72.40
67027;DHT22;53933;52.142;11.738;2022-10-30T01:10:11;24.30;72.30
67027;DHT22;53933;52.142;11.738;2022-10-30T01:12:39;24.20;72.20
67027;DHT22;53933;52.142;11.738;2022-10-30T01:15:07;24.30;72.50
67027;DHT22;53933;52.142;11.738;2022-10-30T01:20:41;24.30;72.60
67027;DHT22;53933;52.142;11.738;2022-10-30T01:23:24;24.20;72.60
67027;DHT22;53933;52.142;11.738;2022-10-30T01:26:02;24.20;72.50
67027;DHT22;53933;52.142;11.738;2022-10-30T01:28:43;24.30;72.60
67027;DHT22;53933;52.142;11.738;2022-10-30T01:31:22;24.30;72.70
67027;DHT22;53933;52.142;11.738;2022-10-30T01:33:57;24.20;72.70
67027;DHT22;53933;52.142;11.738;2022-10-30T01:36:31;24.20;72.60
67027;DHT22;53933;52.142;11.738;2022-10-30T01:39:01;24.30;72.40
67027;DHT22;53933;52.142;11.738;2022-10-30T01:41:31;24.30;72.40
67027;DHT22;53933;52.142;11.738;2022-10-30T01:44:00;24.20;72.30
67027;DHT22;53933;52.142;11.738;2022-10-30T01:46:41;24.20;72.50
67027;DHT22;53933;52.142;11.738;2022-10-30T01:49:26;24.20;72.50
67027;DHT22;53933;52.142;11.738;2022-10-30T01:52:02;24.30;72.70
67027;DHT22;53933;52.142;11.738;2022-10-30T01:54:37;24.20;72.60
67027;DHT22;53933;52.142;11.738;2022-10-30T01:57:12;24.20;72.50
67027;DHT22;53933;52.142;11.738;2022-10-30T01:59:45;24.20;72.50
67027;DHT22;53933;52.142;11.738;2022-10-30T02:02:13;24.30;72.40
67027;DHT22;53933;52.142;11.738;2022-10-30T02:04:40;24.30;72.60
67027;DHT22;53933;52.142;11.738;2022-10-30T02:07:07;24.20;72.40
67027;DHT22;53933;52.142;11.738;2022-10-30T02:09:34;24.20;72.30
67027;DHT22;53933;52.142;11.738;2022-10-30T02:12:01;24.20;72.50
67027;DHT22;53933;52.142;11.738;2022-10-30T02:14:33;24.30;72.60
67027;DHT22;53933;52.142;11.738;2022-10-30T02:17:03;24.30;72.70
67027;DHT22;53933;52.142;11.738;2022-10-30T02:19:31;24.30;72.80
67027;DHT22;53933;52.142;11.738;2022-10-30T02:21:59;24.30;72.90
67027;DHT22;53933;52.142;11.738;2022-10-30T02:24:26;24.20;72.80
67027;DHT22;53933;52.142;11.738;2022-10-30T02:26:52;24.30;72.90
67027;DHT22;53933;52.142;11.738;2022-10-30T02:29:19;24.20;72.90
67027;DHT22;53933;52.142;11.738;2022-10-30T02:31:46;24.20;73.00
67027;DHT22;53933;52.142;11.738;2022-10-30T02:34:13;24.30;73.10
67027;DHT22;53933;52.142;11.738;2022-10-30T02:36:40;24.20;73.00
67027;DHT22;53933;52.142;11.738;2022-10-30T02:39:08;24.30;73.20
67027;DHT22;53933;52.142;11.738;2022-10-30T02:41:35;24.20;73.40
67027;DHT22;53933;52.142;11.738;2022-10-30T02:44:02;24.30;73.70
67027;DHT22;53933;52.142;11.738;2022-10-30T02:46:29;24.20;73.10
67027;DHT22;53933;52.142;11.738;2022-10-30T02:48:56;24.30;73.30
67027;DHT22;53933;52.142;11.738;2022-10-30T02:51:22;24.30;73.20
67027;DHT22;53933;52.142;11.738;2022-10-30T02:53:49;24.20;73.10
67027;DHT22;53933;52.142;11.738;2022-10-30T02:56:17;24.30;73.10
67027;DHT22;53933;52.142;11.738;2022-10-30T02:58:44;24.30;72.90
67027;DHT22;53933;52.142;11.738;2022-10-30T03:01:13;24.20;72.60
67027;DHT22;53933;52.142;11.738;2022-10-30T03:03:40;24.20;72.60
67027;DHT22;53933;52.142;11.738;2022-10-30T03:06:12;24.20;72.40
67027;DHT22;53933;52.142;11.738;2022-10-30T03:08:40;24.20;72.30
67027;DHT22;53933;52.142;11.738;2022-10-30T03:11:10;24.20;72.20
67027;DHT22;53933;52.142;11.738;2022-10-30T03:13:39;24.20;72.00
67027;DHT22;53933;52.142;11.738;2022-10-30T03:16:08;24.20;72.00
67027;DHT22;53933;52.142;11.738;2022-10-30T03:18:35;24.20;71.80
67027;DHT22;53933;52.142;11.738;2022-10-30T03:21:04;24.20;71.70
67027;DHT22;53933;52.142;11.738;2022-10-30T03:23:31;24.20;71.60
67027;DHT22;53933;52.142;11.738;2022-10-30T03:25:58;24.20;71.60
67027;DHT22;53933;52.142;11.738;2022-10-30T03:28:26;24.20;71.50
67027;DHT22;53933;52.142;11.738;2022-10-30T03:30:59;24.20;71.40
67027;DHT22;53933;52.142;11.738;2022-10-30T03:33:26;24.20;71.40
67027;DHT22;53933;52.142;11.738;2022-10-30T03:35:53;24.20;71.40
67027;DHT22;53933;52.142;11.738;2022-10-30T03:38:20;24.10;71.30
67027;DHT22;53933;52.142;11.738;2022-10-30T03:40:47;24.20;71.30
67027;DHT22;53933;52.142;11.738;2022-10-30T03:43:14;24.20;71.70
67027;DHT22;53933;52.142;11.738;2022-10-30T03:45:45;24.20;72.00
67027;DHT22;53933;52.142;11.738;2022-10-30T03:48:14;24.10;71.70
67027;DHT22;53933;52.142;11.738;2022-10-30T03:50:41;24.10;71.70
67027;DHT22;53933;52.142;11.738;2022-10-30T03:53:08;24.10;71.50
67027;DHT22;53933;52.142;11.738;2022-10-30T03:55:34;24.10;71.30
67027;DHT22;53933;52.142;11.738;2022-10-30T03:58:01;24.10;71.20
67027;DHT22;53933;52.142;11.738;2022-10-30T04:00:28;24.10;71.20
67027;DHT22;53933;52.142;11.738;2022-10-30T04:02:54;24.10;71.10
67027;DHT22;53933;52.142;11.738;2022-10-30T04:05:23;24.10;71.00
67027;DHT22;53933;52.142;11.738;2022-10-30T04:07:54;24.10;71.10
67027;DHT22;53933;52.142;11.738;2022-10-30T04:10:21;24.10;71.20
67027;DHT22;53933;52.142;11.738;2022-10-30T04:12:48;24.10;71.20
67027;DHT22;53933;52.142;11.738;2022-10-30T04:15:15;24.10;71.10
67027;DHT22;53933;52.142;11.738;2022-10-30T04:17:47;24.00;71.20
67027;DHT22;53933;52.142;11.738;2022-10-30T04:20:14;24.10;71.20
67027;DHT22;53933;52.142;11.738;2022-10-30T04:22:42;24.10;71.20
67027;DHT22;53933;52.142;11.738;2022-10-30T04:25:09;24.00;71.40
67027;DHT22;53933;52.142;11.738;2022-10-30T04:27:39;24.00;71.20
67027;DHT22;53933;52.142;11.738;2022-10-30T04:30:07;24.00;71.00
67027;DHT22;53933;52.142;11.738;2022-10-30T04:32:33;24.00;71.00
67027;DHT22;53933;52.142;11.738;2022-10-30T04:35:00;24.00;71.10
67027;DHT22;53933;52.142;11.738;2022-10-30T04:37:28;24.00;70.90
67027;DHT22;53933;52.142;11.738;2022-10-30T04:39:56;24.00;70.90
67027;DHT22;53933;52.142;11.738;2022-10-30T04:42:22;24.00;70.90
67027;DHT22;53933;52.142;11.738;2022-10-30T04:44:49;24.00;71.00
67027;DHT22;53933;52.142;11.738;2022-10-30T04:47:16;24.00;71.00
67027;DHT22;53933;52.142;11.738;2022-10-30T04:49:42;24.00;71.10
67027;DHT22;53933;52.142;11.738;2022-10-30T04:52:09;24.00;71.10
67027;DHT22;53933;52.142;11.738;2022-10-30T04:54:36;24.00;71.10
67027;DHT22;53933;52.142;11.738;2022-10-30T04:57:04;24.00;71.70
67027;DHT22;53933;52.142;11.738;2022-10-30T04:59:31;24.00;72.00
67027;DHT22;53933;52.142;11.738;2022-10-30T05:01:58;24.00;71.80
67027;DHT22;53933;52.142;11.738;2022-10-30T05:04:24;24.00;71.50
67027;DHT22;53933;52.142;11.738;2022-10-30T05:06:51;24.00;71.40
67027;DHT22;53933;52.142;11.738;2022-10-30T05:09:18;24.00;71.30
67027;DHT22;53933;52.142;11.738;2022-10-30T05:11:44;24.00;71.30
67027;DHT22;53933;52.142;11.738;2022-10-30T05:14:12;24.00;71.50
67027;DHT22;53933;52.142;11.738;2022-10-30T05:16:39;24.00;71.50
67027;DHT22;53933;52.142;11.738;2022-10-30T05:19:06;24.00;71.70
67027;DHT22;53933;52.142;11.738;2022-10-30T05:21:32;24.00;71.90
67027;DHT22;53933;52.142;11.738;2022-10-30T05:23:59;24.00;71.90
67027;DHT22;53933;52.142;11.738;2022-10-30T05:26:26;24.00;71.80
67027;DHT22;53933;52.142;11.738;2022-10-30T05:28:52;24.00;71.80
67027;DHT22;53933;52.142;11.738;2022-10-30T05:31:20;24.00;71.80
67027;DHT22;53933;52.142;11.738;2022-10-30T05:33:47;24.00;71.90
67027;DHT22;53933;52.142;11.738;2022-10-30T05:36:14;24.00;71.90
67027;DHT22;53933;52.142;11.738;2022-10-30T05:38:40;24.00;72.70
67027;DHT22;53933;52.142;11.738;2022-10-30T05:41:07;24.00;71.80
67027;DHT22;53933;52.142;11.738;2022-10-30T05:43:34;24.00;71.70
67027;DHT22;53933;52.142;11.738;2022-10-30T05:46:00;24.00;71.70
67027;DHT22;53933;52.142;11.738;2022-10-30T05:48:29;24.00;71.80
67027;DHT22;53933;52.142;11.738;2022-10-30T05:50:55;24.00;71.70
67027;DHT22;53933;52.142;11.738;2022-10-30T05:53:23;24.00;71.70
67027;DHT22;53933;52.142;11.738;2022-10-30T05:55:50;24.00;71.70
67027;DHT22;53933;52.142;11.738;2022-10-30T05:58:17;24.00;71.80
67027;DHT22;53933;52.142;11.738;2022-10-30T06:00:44;24.00;71.80
67027;DHT22;53933;52.142;11.738;2022-10-30T06:03:11;24.00;71.70
67027;DHT22;53933;52.142;11.738;2022-10-30T06:05:39;24.00;71.90
67027;DHT22;53933;52.142;11.738;2022-10-30T06:08:07;24.00;71.80
67027;DHT22;53933;52.142;11.738;2022-10-30T06:10:34;24.00;71.90
67027;DHT22;53933;52.142;11.738;2022-10-30T06:13:03;24.00;71.80
67027;DHT22;53933;52.142;11.738;2022-10-30T06:15:30;24.00;71.90
67027;DHT22;53933;52.142;11.738;2022-10-30T06:17:57;24.00;72.10
67027;DHT22;53933;52.142;11.738;2022-10-30T06:20:25;24.00;71.90
67027;DHT22;53933;52.142;11.738;2022-10-30T06:22:54;24.00;72.10
67027;DHT22;53933;52.142;11.738;2022-10-30T06:25:22;24.00;72.10
67027;DHT22;53933;52.142;11.738;2022-10-30T06:27:49;24.00;72.10
67027;DHT22;53933;52.142;11.738;2022-10-30T06:30:16;24.00;72.10
67027;DHT22;53933;52.142;11.738;2022-10-30T06:32:43;24.00;72.10
67027;DHT22;53933;52.142;11.738;2022-10-30T06:35:10;24.00;72.10
67027;DHT22;53933;52.142;11.738;2022-10-30T06:37:37;24.00;72.00
67027;DHT22;53933;52.142;11.738;2022-10-30T06:40:07;24.00;72.00
67027;DHT22;53933;52.142;11.738;2022-10-30T06:42:41;24.00;72.00
67027;DHT22;53933;52.142;11.738;2022-10-30T06:45:08;24.00;72.00
67027;DHT22;53933;52.142;11.738;2022-10-30T06:47:36;24.00;72.00
67027;DHT22;53933;52.142;11.738;2022-10-30T06:50:03;24.00;72.10
67027;DHT22;53933;52.142;11.738;2022-10-30T06:52:29;24.00;71.70
67027;DHT22;53933;52.142;11.738;2022-10-30T06:54:56;24.00;71.70
67027;DHT22;53933;52.142;11.738;2022-10-30T06:57:24;24.00;71.40
67027;DHT22;53933;52.142;11.738;2022-10-30T06:59:51;23.90;71.20
67027;DHT22;53933;52.142;11.738;2022-10-30T07:02:17;23.90;71.60
67027;DHT22;53933;52.142;11.738;2022-10-30T07:04:44;23.90;71.60
67027;DHT22;53933;52.142;11.738;2022-10-30T07:07:11;23.90;71.70
67027;DHT22;53933;52.142;11.738;2022-10-30T07:09:37;23.90;71.80
67027;DHT22;53933;52.142;11.738;2022-10-30T07:12:05;23.90;71.60
67027;DHT22;53933;52.142;11.738;2022-10-30T07:14:33;24.00;71.60
67027;DHT22;53933;52.142;11.738;2022-10-30T07:17:00;23.90;71.60
67027;DHT22;53933;52.142;11.738;2022-10-30T07:19:27;24.00;71.80
67027;DHT22;53933;52.142;11.738;2022-10-30T07:21:54;24.00;71.60
67027;DHT22;53933;52.142;11.738;2022-10-30T07:24:20;24.00;71.50
67027;DHT22;53933;52.142;11.738;2022-10-30T07:26:47;24.00;71.40
67027;DHT22;53933;52.142;11.738;2022-10-30T07:29:14;24.00;71.40
67027;DHT22;53933;52.142;11.738;2022-10-30T07:31:44;24.00;71.40
67027;DHT22;53933;52.142;11.738;2022-10-30T07:34:11;24.00;71.40
67027;DHT22;53933;52.142;11.738;2022-10-30T07:36:38;24.00;71.30
67027;DHT22;53933;52.142;11.738;2022-10-30T07:39:04;24.00;71.40
67027;DHT22;53933;52.142;11.738;2022-10-30T07:41:31;24.00;71.30
67027;DHT22;53933;52.142;11.738;2022-10-30T07:43:58;24.00;71.20
67027;DHT22;53933;52.142;11.738;2022-10-30T07:46:24;24.00;71.20
67027;DHT22;53933;52.142;11.738;2022-10-30T07:48:53;24.00;71.20
67027;DHT22;53933;52.142;11.738;2022-10-30T07:51:20;24.00;71.00
67027;DHT22;53933;52.142;11.738;2022-10-30T07:53:47;24.10;71.20
67027;DHT22;53933;52.142;11.738;2022-10-30T07:56:14;24.10;71.00
67027;DHT22;53933;52.142;11.738;2022-10-30T07:58:40;24.10;70.90
67027;DHT22;53933;52.142;11.738;2022-10-30T08:01:07;24.10;70.40
67027;DHT22;53933;52.142;11.738;2022-10-30T08:03:34;24.10;70.20
67027;DHT22;53933;52.142;11.738;2022-10-30T08:06:02;24.10;70.50
67027;DHT22;53933;52.142;11.738;2022-10-30T08:08:28;24.10;71.00
67027;DHT22;53933;52.142;11.738;2022-10-30T08:10:56;24.20;71.00
67027;DHT22;53933;52.142;11.738;2022-10-30T08:13:23;24.20;70.70
67027;DHT22;53933;52.142;11.738;2022-10-30T08:15:50;24.20;70.70
67027;DHT22;53933;52.142;11.738;2022-10-30T08:18:16;24.20;71.00
67027;DHT22;53933;52.142;11.738;2022-10-30T08:20:47;24.20;71.20
67027;DHT22;53933;52.142;11.738;2022-10-30T08:23:16;24.30;71.00
67027;DHT22;53933;52.142;11.738;2022-10-30T08:25:44;24.30;70.90
67027;DHT22;53933;52.142;11.738;2022-10-30T08:28:11;24.30;71.40
67027;DHT22;53933;52.142;11.738;2022-10-30T08:30:39;24.40;70.90
67027;DHT22;53933;52.142;11.738;2022-10-30T08:33:08;24.40;70.60
67027;DHT22;53933;52.142;11.738;2022-10-30T08:35:35;24.40;70.80
67027;DHT22;53933;52.142;11.738;2022-10-30T08:38:02;24.40;70.70
67027;DHT22;53933;52.142;11.738;2022-10-30T08:40:30;24.40;70.80
67027;DHT22;53933;52.142;11.738;2022-10-30T08:42:57;24.40;70.80
67027;DHT22;53933;52.142;11.738;2022-10-30T08:45:23;24.50;70.50
67027;DHT22;53933;52.142;11.738;2022-10-30T08:47:56;24.40;70.30
67027;DHT22;53933;52.142;11.738;2022-10-30T08:50:23;24.40;70.00
67027;DHT22;53933;52.142;11.738;2022-10-30T08:52:50;24.40;70.10
67027;DHT22;53933;52.142;11.738;2022-10-30T08:55:16;24.50;69.80
67027;DHT22;53933;52.142;11.738;2022-10-30T08:57:44;24.50;69.70
67027;DHT22;53933;52.142;11.738;2022-10-30T09:00:12;24.50;69.90
67027;DHT22;53933;52.142;11.738;2022-10-30T09:02:38;24.50;70.00
67027;DHT22;53933;52.142;11.738;2022-10-30T09:05:05;24.50;69.90
67027;DHT22;53933;52.142;11.738;2022-10-30T09:07:33;24.50;70.00
67027;DHT22;53933;52.142;11.738;2022-10-30T09:10:00;24.50;69.70
67027;DHT22;53933;52.142;11.738;2022-10-30T09:12:27;24.50;69.80
67027;DHT22;53933;52.142;11.738;2022-10-30T09:14:55;24.50;69.90
67027;DHT22;53933;52.142;11.738;2022-10-30T09:17:22;25.10;69.10
67027;DHT22;53933;52.142;11.738;2022-10-30T09:19:49;25.70;67.40
67027;DHT22;53933;52.142;11.738;2022-10-30T09:22:16;26.30;65.60
67027;DHT22;53933;52.142;11.738;2022-10-30T09:24:42;26.70;64.20
67027;DHT22;53933;52.142;11.738;2022-10-30T09:27:09;27.00;63.20
67027;DHT22;53933;52.142;11.738;2022-10-30T09:29:36;27.20;62.60
67027;DHT22;53933;52.142;11.738;2022-10-30T09:32:04;27.50;61.80
67027;DHT22;53933;52.142;11.738;2022-10-30T09:34:34;27.70;61.00
67027;DHT22;53933;52.142;11.738;2022-10-30T09:37:01;27.90;60.60
67027;DHT22;53933;52.142;11.738;2022-10-30T09:39:27;27.90;60.30
67027;DHT22;53933;52.142;11.738;2022-10-30T09:42:11;28.00;60.20
67027;DHT22;53933;52.142;11.738;2022-10-30T09:44:49;28.10;59.90
67027;DHT22;53933;52.142;11.738;2022-10-30T09:47:29;28.20;59.80
67027;DHT22;53933;52.142;11.738;2022-10-30T09:50:06;28.20;59.70
67027;DHT22;53933;52.142;11.738;2022-10-30T09:52:43;28.20;59.60
67027;DHT22;53933;52.142;11.738;2022-10-30T09:55:19;28.30;59.50
67027;DHT22;53933;52.142;11.738;2022-10-30T09:57:56;28.40;59.40
67027;DHT22;53933;52.142;11.738;2022-10-30T10:00:30;28.40;59.30
67027;DHT22;53933;52.142;11.738;2022-10-30T10:03:12;28.40;59.10
67027;DHT22;53933;52.142;11.738;2022-10-30T10:05:45;28.40;59.10
67027;DHT22;53933;52.142;11.738;2022-10-30T10:08:16;28.40;59.10
67027;DHT22;53933;52.142;11.738;2022-10-30T10:10:45;28.40;59.10
67027;DHT22;53933;52.142;11.738;2022-10-30T10:13:23;28.40;59.20
67027;DHT22;53933;52.142;11.738;2022-10-30T10:15:56;28.30;59.20
67027;DHT22;53933;52.142;11.738;2022-10-30T10:18:30;28.30;59.40
67027;DHT22;53933;52.142;11.738;2022-10-30T10:21:06;28.20;59.60
67027;DHT22;53933;52.142;11.738;2022-10-30T10:23:40;28.10;59.80
67027;DHT22;53933;52.142;11.738;2022-10-30T10:26:20;28.00;60.00
67027;DHT22;53933;52.142;11.738;2022-10-30T10:28:59;27.90;60.30
67027;DHT22;53933;52.142;11.738;2022-10-30T10:31:35;27.80;60.50
67027;DHT22;53933;52.142;11.738;2022-10-30T10:34:37;27.70;61.00
67027;DHT22;53933;52.142;11.738;2022-10-30T10:37:13;27.50;62.30
67027;DHT22;53933;52.142;11.738;2022-10-30T10:39:54;27.40;62.10
67027;DHT22;53933;52.142;11.738;2022-10-30T10:42:34;27.30;62.30
67027;DHT22;53933;52.142;11.738;2022-10-30T10:45:21;27.20;62.70
67027;DHT22;53933;52.142;11.738;2022-10-30T10:48:15;27.20;63.10
67027;DHT22;53933;52.142;11.738;2022-10-30T10:50:48;27.10;63.10
67027;DHT22;53933;52.142;11.738;2022-10-30T10:53:20;27.00;63.50
67027;DHT22;53933;52.142;11.738;2022-10-30T10:55:50;26.90;63.70
67027;DHT22;53933;52.142;11.738;2022-10-30T10:58:25;26.80;63.90
67027;DHT22;53933;52.142;11.738;2022-10-30T11:00:55;26.80;64.20
67027;DHT22;53933;52.142;11.738;2022-10-30T11:03:28;26.70;64.40
67027;DHT22;53933;52.142;11.738;2022-10-30T11:06:03;26.60;64.60
67027;DHT22;53933;52.142;11.738;2022-10-30T11:08:33;26.60;64.70
67027;DHT22;53933;52.142;11.738;2022-10-30T11:11:02;26.60;65.00
67027;DHT22;53933;52.142;11.738;2022-10-30T11:13:30;26.50;65.10
67027;DHT22;53933;52.142;11.738;2022-10-30T11:16:05;26.50;65.30
67027;DHT22;53933;52.142;11.738;2022-10-30T11:18:35;26.40;65.50
67027;DHT22;53933;52.142;11.738;2022-10-30T11:21:07;26.40;65.80
67027;DHT22;53933;52.142;11.738;2022-10-30T11:23:37;26.30;65.80
67027;DHT22;53933;52.142;11.738;2022-10-30T11:26:26;26.30;66.20
67027;DHT22;53933;52.142;11.738;2022-10-30T11:28:55;26.30;66.20
67027;DHT22;53933;52.142;11.738;2022-10-30T11:31:24;26.30;66.20
67027;DHT22;53933;52.142;11.738;2022-10-30T11:33:58;26.20;65.90
67027;DHT22;53933;52.142;11.738;2022-10-30T11:36:35;26.20;65.90
67027;DHT22;53933;52.142;11.738;2022-10-30T11:39:10;26.10;66.10
67027;DHT22;53933;52.142;11.738;2022-10-30T11:41:38;26.10;66.30
67027;DHT22;53933;52.142;11.738;2022-10-30T11:44:05;26.00;66.30
67027;DHT22;53933;52.142;11.738;2022-10-30T11:46:32;26.00;66.40
67027;DHT22;53933;52.142;11.738;2022-10-30T11:49:01;25.90;66.40
67027;DHT22;53933;52.142;11.738;2022-10-30T11:51:35;25.90;66.50
67027;DHT22;53933;52.142;11.738;2022-10-30T11:54:03;25.90;66.60
67027;DHT22;53933;52.142;11.738;2022-10-30T11:56:30;25.90;66.70
67027;DHT22;53933;52.142;11.738;2022-10-30T11:59:01;25.90;66.80
67027;DHT22;53933;52.142;11.738;2022-10-30T12:01:30;25.90;66.90
67027;DHT22;53933;52.142;11.738;2022-10-30T12:04:12;25.90;67.30
67027;DHT22;53933;52.142;11.738;2022-10-30T12:06:40;25.90;67.30
67027;DHT22;53933;52.142;11.738;2022-10-30T12:09:10;25.90;67.30
67027;DHT22;53933;52.142;11.738;2022-10-30T12:11:38;25.90;67.90
67027;DHT22;53933;52.142;11.738;2022-10-30T12:14:15;25.90;67.90
67027;DHT22;53933;52.142;11.738;2022-10-30T12:16:44;25.90;68.10
67027;DHT22;53933;52.142;11.738;2022-10-30T12:19:14;25.90;68.40
67027;DHT22;53933;52.142;11.738;2022-10-30T12:21:45;25.90;68.20
67027;DHT22;53933;52.142;11.738;2022-10-30T12:24:17;25.90;68.60
67027;DHT22;53933;52.142;11.738;2022-10-30T12:26:46;25.90;68.50
67027;DHT22;53933;52.142;11.738;2022-10-30T12:29:16;25.90;68.40
67027;DHT22;53933;52.142;11.738;2022-10-30T12:31:47;25.90;68.30
67027;DHT22;53933;52.142;11.738;2022-10-30T12:34:26;25.90;68.30
67027;DHT22;53933;52.142;11.738;2022-10-30T12:37:01;25.80;68.30
67027;DHT22;53933;52.142;11.738;2022-10-30T12:39:32;25.80;68.30
67027;DHT22;53933;52.142;11.738;2022-10-30T12:42:11;25.80;68.40
67027;DHT22;53933;52.142;11.738;2022-10-30T12:44:43;25.80;68.50
67027;DHT22;53933;52.142;11.738;2022-10-30T12:47:19;25.80;68.50
67027;DHT22;53933;52.142;11.738;2022-10-30T12:49:49;25.70;68.40
67027;DHT22;53933;52.142;11.738;2022-10-30T12:52:20;25.70;68.50
67027;DHT22;53933;52.142;11.738;2022-10-30T12:54:50;25.70;68.60
67027;DHT22;53933;52.142;11.738;2022-10-30T12:57:22;25.70;68.60
67027;DHT22;53933;52.142;11.738;2022-10-30T12:59:59;25.70;68.60
67027;DHT22;53933;52.142;11.738;2022-10-30T13:02:37;25.70;68.60
67027;DHT22;53933;52.142;11.738;2022-10-30T13:05:20;25.70;68.70
67027;DHT22;53933;52.142;11.738;2022-10-30T13:07:59;25.60;68.90
67027;DHT22;53933;52.142;11.738;2022-10-30T13:10:30;25.70;69.10
67027;DHT22;53933;52.142;11.738;2022-10-30T13:13:03;25.70;69.10
67027;DHT22;53933;52.142;11.738;2022-10-30T13:15:32;25.70;69.10
67027;DHT22;53933;52.142;11.738;2022-10-30T13:18:13;25.80;68.90
67027;DHT22;53933;52.142;11.738;2022-10-30T13:20:42;25.80;68.80
67027;DHT22;53933;52.142;11.738;2022-10-30T13:23:15;25.80;68.90
67027;DHT22;53933;52.142;11.738;2022-10-30T13:26:00;25.80;68.80
67027;DHT22;53933;52.142;11.738;2022-10-30T13:28:32;25.70;68.80
67027;DHT22;53933;52.142;11.738;2022-10-30T13:31:08;25.70;68.80
67027;DHT22;53933;52.142;11.738;2022-10-30T13:33:44;25.70;68.90
67027;DHT22;53933;52.142;11.738;2022-10-30T13:36:18;25.60;68.90
67027;DHT22;53933;52.142;11.738;2022-10-30T13:38:57;25.60;68.90
67027;DHT22;53933;52.142;11.738;2022-10-30T13:41:31;25.60;69.00
67027;DHT22;53933;52.142;11.738;2022-10-30T13:44:06;25.60;69.00
67027;DHT22;53933;52.142;11.738;2022-10-30T13:47:03;25.50;69.00
67027;DHT22;53933;52.142;11.738;2022-10-30T13:49:48;25.50;69.00
67027;DHT22;53933;52.142;11.738;2022-10-30T13:52:19;25.50;69.00
67027;DHT22;53933;52.142;11.738;2022-10-30T13:54:55;25.50;69.00
67027;DHT22;53933;52.142;11.738;2022-10-30T13:57:28;25.50;69.00
67027;DHT22;53933;52.142;11.738;2022-10-30T14:00:02;25.50;69.10
67027;DHT22;53933;52.142;11.738;2022-10-30T14:02:48;25.50;69.30
67027;DHT22;53933;52.142;11.738;2022-10-30T14:05:29;25.50;69.40
67027;DHT22;53933;52.142;11.738;2022-10-30T14:08:05;25.50;69.20
67027;DHT22;53933;52.142;11.738;2022-10-30T14:10:55;25.50;69.50
67027;DHT22;53933;52.142;11.738;2022-10-30T14:13:23;25.50;71.00
67027;DHT22;53933;52.142;11.738;2022-10-30T14:15:56;25.60;70.00
67027;DHT22;53933;52.142;11.738;2022-10-30T14:24:09;25.60;69.30
67027;DHT22;53933;52.142;11.738;2022-10-30T14:26:41;25.50;69.40
67027;DHT22;53933;52.142;11.738;2022-10-30T14:29:44;25.50;69.50
67027;DHT22;53933;52.142;11.738;2022-10-30T14:35:35;25.40;69.70
67027;DHT22;53933;52.142;11.738;2022-10-30T14:38:22;25.40;69.80
67027;DHT22;53933;52.142;11.738;2022-10-30T14:41:04;25.40;69.90
67027;DHT22;53933;52.142;11.738;2022-10-30T14:43:41;25.40;69.90
67027;DHT22;53933;52.142;11.738;2022-10-30T14:46:18;25.40;69.90
67027;DHT22;53933;52.142;11.738;2022-10-30T14:48:55;25.40;70.00
67027;DHT22;53933;52.142;11.738;2022-10-30T14:51:32;25.40;69.90
67027;DHT22;53933;52.142;11.738;2022-10-30T14:54:07;25.30;69.70
67027;DHT22;53933;52.142;11.738;2022-10-30T14:56:40;25.40;69.80
67027;DHT22;53933;52.142;11.738;2022-10-30T14:59:23;25.30;69.90
67027;DHT22;53933;52.142;11.738;2022-10-30T15:02:08;25.40;70.20
67027;DHT22;53933;52.142;11.738;2022-10-30T15:04:52;25.30;70.00
67027;DHT22;53933;52.142;11.738;2022-10-30T15:07:26;25.30;70.10
67027;DHT22;53933;52.142;11.738;2022-10-30T15:10:06;25.20;70.30
67027;DHT22;53933;52.142;11.738;2022-10-30T15:12:51;25.20;70.40
67027;DHT22;53933;52.142;11.738;2022-10-30T15:15:25;25.20;70.30
67027;DHT22;53933;52.142;11.738;2022-10-30T15:17:54;25.20;71.10
67027;DHT22;53933;52.142;11.738;2022-10-30T15:20:24;25.20;70.20
67027;DHT22;53933;52.142;11.738;2022-10-30T15:22:53;25.20;70.20
67027;DHT22;53933;52.142;11.738;2022-10-30T15:25:22;25.20;70.10
67027;DHT22;53933;52.142;11.738;2022-10-30T15:27:51;25.20;70.20
67027;DHT22;53933;52.142;11.738;2022-10-30T15:30:20;25.20;70.20
67027;DHT22;53933;52.142;11.738;2022-10-30T15:32:48;25.20;70.50
67027;DHT22;53933;52.142;11.738;2022-10-30T15:35:16;25.20;70.50
67027;DHT22;53933;52.142;11.738;2022-10-30T15:38:01;25.10;70.50
67027;DHT22;53933;52.142;11.738;2022-10-30T15:40:28;25.10;70.50
67027;DHT22;53933;52.142;11.738;2022-10-30T15:42:56;25.10;70.50
67027;DHT22;53933;52.142;11.738;2022-10-30T15:45:28;25.10;70.60
67027;DHT22;53933;52.142;11.738;2022-10-30T15:48:00;25.00;70.70